Time;durP1;ratioP1;P1;durP2;ratioP2;P2;SDS_P1;SDS_P2;PMS_P1;PMS_P2;Temp;Humidity;BMP_temperature;BMP_pressure;BME280_temperature;BME280_humidity;BME280_pressure;Samples;Min_cycle;Max_cycle;Signal;HPM_P1;HPM_P2
2021/03/26 00:01:18;;;;;;;22.63;8.73;;;7.30;99.90;;;;;;5040819;28;20371;-74
2021/03/26 00:03:46;;;;;;;18.00;7.60;;;7.20;99.90;;;;;;5039907;28;20029;-74
2021/03/26 00:06:15;;;;;;;27.85;10.65;;;7.20;99.90;;;;;;5035557;28;20044;-75
2021/03/26 00:08:41;;;;;;;19.83;8.57;;;7.20;99.90;;;;;;5042295;28;20076;-73
2021/03/26 00:11:08;;;;;;;21.95;9.27;;;7.20;99.90;;;;;;5041761;28;20026;-74
2021/03/26 00:13:34;;;;;;;30.35;9.55;;;7.20;99.90;;;;;;5037064;28;20034;-75
2021/03/26 00:16:00;;;;;;;21.42;8.75;;;7.10;99.90;;;;;;5042347;28;20056;-74
2021/03/26 00:18:25;;;;;;;17.25;8.45;;;7.20;99.90;;;;;;5034199;28;20474;-73
2021/03/26 00:20:51;;;;;;;25.98;9.55;;;7.20;99.90;;;;;;5041971;28;20083;-74
2021/03/26 00:23:17;;;;;;;23.15;9.30;;;7.10;99.90;;;;;;5039387;28;20051;-74
2021/03/26 00:25:43;;;;;;;17.05;7.68;;;7.10;99.90;;;;;;5044161;28;20057;-73
2021/03/26 00:28:09;;;;;;;24.95;7.75;;;7.10;99.90;;;;;;5035033;28;20072;-73
2021/03/26 00:30:35;;;;;;;19.50;9.02;;;7.10;99.90;;;;;;5043132;28;20459;-74
2021/03/26 00:33:03;;;;;;;19.40;6.82;;;7.10;99.90;;;;;;5044428;28;20021;-73
2021/03/26 00:35:29;;;;;;;22.40;7.72;;;7.10;99.90;;;;;;5041752;28;20028;-77
2021/03/26 00:37:55;;;;;;;23.85;8.27;;;7.00;99.90;;;;;;5044584;28;20043;-74
2021/03/26 00:40:22;;;;;;;17.50;7.70;;;7.00;99.90;;;;;;5043432;28;20082;-73
2021/03/26 00:42:48;;;;;;;26.73;9.18;;;7.00;99.90;;;;;;5040962;28;20449;-74
2021/03/26 00:45:19;;;;;;;24.75;8.43;;;7.10;99.90;;;;;;5037658;28;20083;-74
2021/03/26 00:47:45;;;;;;;16.75;8.15;;;6.90;99.90;;;;;;5042766;28;20044;-74
2021/03/26 00:50:19;;;;;;;22.83;8.98;;;6.90;99.90;;;;;;5035201;28;20033;-75
2021/03/26 00:52:47;;;;;;;16.15;7.63;;;6.90;99.90;;;;;;5036638;28;20048;-73
2021/03/26 00:55:13;;;;;;;25.98;7.40;;;6.80;99.90;;;;;;5042789;28;20032;-74
2021/03/26 00:57:38;;;;;;;18.80;7.05;;;6.80;99.90;;;;;;5043007;28;20049;-76
2021/03/26 01:00:11;;;;;;;15.85;6.85;;;6.70;99.90;;;;;;5035190;28;20056;-74
2021/03/26 01:02:36;;;;;;;30.20;9.70;;;6.70;99.90;;;;;;5044188;28;20036;-74
2021/03/26 01:05:08;;;;;;;16.23;7.30;;;6.80;99.90;;;;;;5040301;28;20021;-74
2021/03/26 01:07:33;;;;;;;20.70;8.55;;;6.70;99.90;;;;;;5034581;28;20034;-75
2021/03/26 01:09:59;;;;;;;22.88;8.30;;;6.70;99.90;;;;;;5041840;28;20088;-74
2021/03/26 01:12:25;;;;;;;18.80;7.75;;;6.70;99.90;;;;;;5038543;28;20092;-73
2021/03/26 01:14:51;;;;;;;24.52;8.80;;;6.70;99.90;;;;;;5037595;28;20025;-73
2021/03/26 01:17:17;;;;;;;25.63;10.55;;;6.60;99.90;;;;;;5039764;28;20046;-72
2021/03/26 01:19:43;;;;;;;22.77;8.95;;;6.60;99.90;;;;;;5035118;28;20073;-73
2021/03/26 01:22:12;;;;;;;26.27;10.38;;;6.60;99.90;;;;;;5030109;28;20064;-72
2021/03/26 01:24:37;;;;;;;23.77;9.00;;;6.60;99.90;;;;;;5031820;28;20108;-74
2021/03/26 01:27:03;;;;;;;24.35;9.60;;;6.50;99.90;;;;;;5033322;28;20505;-73
2021/03/26 01:29:29;;;;;;;21.40;9.45;;;6.50;99.90;;;;;;5033172;28;20037;-73
2021/03/26 01:31:54;;;;;;;21.10;9.02;;;6.60;99.90;;;;;;5034618;28;20041;-73
2021/03/26 01:34:20;;;;;;;23.40;9.23;;;6.60;99.90;;;;;;5038105;28;20025;-73
2021/03/26 01:36:46;;;;;;;24.33;9.48;;;6.60;99.90;;;;;;5037615;28;20045;-72
2021/03/26 01:39:12;;;;;;;29.27;9.15;;;6.50;99.90;;;;;;5036152;28;20060;-72
2021/03/26 01:41:42;;;;;;;26.73;9.63;;;6.50;99.90;;;;;;5035086;28;20026;-74
2021/03/26 01:44:09;;;;;;;24.90;8.93;;;6.50;99.90;;;;;;5035683;28;20026;-73
2021/03/26 01:46:39;;;;;;;21.00;8.63;;;6.50;99.90;;;;;;5037133;28;20505;-71
2021/03/26 01:49:06;;;;;;;17.73;7.43;;;6.40;99.90;;;;;;5036159;28;20044;-74
2021/03/26 01:51:39;;;;;;;23.13;8.75;;;6.40;99.90;;;;;;5041231;28;20018;-72
2021/03/26 01:54:07;;;;;;;19.05;8.98;;;6.40;99.90;;;;;;5039188;28;20045;-75
2021/03/26 01:56:33;;;;;;;21.00;8.55;;;6.40;99.90;;;;;;5040589;28;20029;-74
2021/03/26 01:58:59;;;;;;;22.60;10.20;;;6.40;99.90;;;;;;5059187;28;20083;-75
2021/03/26 02:01:29;;;;;;;23.35;8.40;;;6.40;99.90;;;;;;5028250;28;20201;-75
2021/03/26 02:04:01;;;;;;;22.25;8.68;;;6.30;99.90;;;;;;5030583;28;20025;-75
2021/03/26 02:06:42;;;;;;;19.02;8.25;;;6.30;99.90;;;;;;5048320;28;20124;-73
2021/03/26 02:09:24;;;;;;;20.25;8.45;;;6.30;99.90;;;;;;5047012;28;20121;-74
2021/03/26 02:11:57;;;;;;;27.08;9.82;;;6.20;99.90;;;;;;5046150;28;20038;-75
2021/03/26 02:14:26;;;;;;;22.67;8.35;;;6.20;99.90;;;;;;5043158;28;20471;-73
2021/03/26 02:16:52;;;;;;;24.20;9.38;;;6.10;99.90;;;;;;5034692;28;20053;-73
2021/03/26 02:19:37;;;;;;;24.00;9.25;;;6.10;99.90;;;;;;5028184;28;20046;-73
2021/03/26 02:22:04;;;;;;;21.67;7.97;;;6.00;99.90;;;;;;5027538;28;20044;-74
2021/03/26 02:24:30;;;;;;;25.77;9.75;;;6.00;99.90;;;;;;5027460;28;20030;-73
2021/03/26 02:27:01;;;;;;;25.58;10.07;;;5.90;99.90;;;;;;5028394;28;20025;-73
2021/03/26 02:29:28;;;;;;;27.30;9.95;;;5.90;99.90;;;;;;5028409;28;20422;-74
2021/03/26 02:31:59;;;;;;;28.35;10.00;;;5.80;99.90;;;;;;5027782;28;20061;-73
2021/03/26 02:34:25;;;;;;;27.25;11.25;;;5.80;99.90;;;;;;5028013;28;20037;-73
2021/03/26 02:36:58;;;;;;;28.60;10.57;;;5.70;99.90;;;;;;5027588;28;20036;-74
2021/03/26 02:39:37;;;;;;;25.92;8.45;;;5.70;99.90;;;;;;5027656;28;20057;-74
2021/03/26 02:42:09;;;;;;;32.70;10.13;;;5.70;99.90;;;;;;5063123;28;20041;-75
2021/03/26 02:44:59;;;;;;;32.15;11.50;;;5.70;99.90;;;;;;5038071;28;20057;-74
2021/03/26 02:47:40;;;;;;;30.98;9.48;;;5.70;99.90;;;;;;5027675;28;20050;-74
2021/03/26 02:50:11;;;;;;;23.23;8.50;;;5.70;99.90;;;;;;5035637;28;20033;-74
2021/03/26 02:53:00;;;;;;;27.73;10.63;;;5.70;99.90;;;;;;5045823;28;20029;-73
2021/03/26 02:55:42;;;;;;;33.00;10.02;;;5.70;99.90;;;;;;5034985;28;20030;-75
2021/03/26 02:58:24;;;;;;;25.35;10.88;;;5.60;99.90;;;;;;5027244;28;20046;-74
2021/03/26 03:01:12;;;;;;;29.65;9.93;;;5.60;99.90;;;;;;5027787;28;20064;-73
2021/03/26 03:03:41;;;;;;;33.47;10.85;;;5.60;99.90;;;;;;5038818;28;20052;-73
2021/03/26 03:06:19;;;;;;;21.25;9.10;;;5.60;99.90;;;;;;5045643;28;20033;-73
2021/03/26 03:08:48;;;;;;;24.83;10.13;;;5.70;99.90;;;;;;5047080;28;20032;-74
2021/03/26 03:11:29;;;;;;;23.88;10.38;;;5.50;99.90;;;;;;5047141;28;20036;-71
2021/03/26 03:14:21;;;;;;;23.90;9.75;;;5.50;99.90;;;;;;5031920;28;20430;-73
2021/03/26 03:17:04;;;;;;;29.48;10.90;;;5.40;99.90;;;;;;5026867;28;20050;-74
2021/03/26 03:19:47;;;;;;;29.63;11.15;;;5.40;99.90;;;;;;5047203;28;20097;-74
2021/03/26 03:22:36;;;;;;;25.75;11.30;;;5.40;99.90;;;;;;5046865;28;20029;-74
2021/03/26 03:25:10;;;;;;;25.30;9.85;;;5.40;99.90;;;;;;5047137;28;20033;-72
2021/03/26 03:27:54;;;;;;;21.50;8.82;;;5.40;99.90;;;;;;5046613;28;20029;-76
2021/03/26 03:30:20;;;;;;;24.50;11.67;;;5.40;99.90;;;;;;5046762;28;20022;-74
2021/03/26 03:33:12;;;;;;;32.65;11.88;;;5.40;99.90;;;;;;5046561;28;20060;-74
2021/03/26 03:36:00;;;;;;;22.02;10.07;;;5.40;99.90;;;;;;5046526;28;20108;-74
2021/03/26 03:38:50;;;;;;;36.45;12.30;;;5.50;99.90;;;;;;5025423;28;20053;-74
2021/03/26 03:41:21;;;;;;;31.23;11.27;;;5.40;99.90;;;;;;5026642;28;20030;-75
2021/03/26 03:43:55;;;;;;;27.48;9.93;;;5.50;99.90;;;;;;5026554;28;20029;-74
2021/03/26 03:46:22;;;;;;;34.25;10.73;;;5.40;99.90;;;;;;5026537;28;20026;-73
2021/03/26 03:49:17;;;;;;;22.52;9.27;;;5.40;99.90;;;;;;5026519;28;20073;-73
2021/03/26 03:51:57;;;;;;;31.05;11.45;;;5.40;99.90;;;;;;5017640;28;20041;-73
2021/03/26 03:54:50;;;;;;;26.90;11.80;;;5.40;99.90;;;;;;5026407;28;20022;-75
2021/03/26 03:57:28;;;;;;;28.65;11.57;;;5.40;99.90;;;;;;5029301;28;20026;-73
2021/03/26 03:59:57;;;;;;;33.97;10.80;;;5.40;99.90;;;;;;5026568;28;20442;-74
2021/03/26 04:02:46;;;;;;;37.67;10.30;;;5.40;99.90;;;;;;5041671;28;20375;-74
2021/03/26 04:05:25;;;;;;;29.48;11.35;;;5.40;99.90;;;;;;5025034;28;20053;-75
2021/03/26 04:07:54;;;;;;;29.75;10.77;;;5.30;99.90;;;;;;5024723;28;20041;-73
2021/03/26 04:10:20;;;;;;;33.10;11.45;;;5.30;99.90;;;;;;5025899;28;20049;-73
2021/03/26 04:12:53;;;;;;;30.15;10.93;;;5.30;99.90;;;;;;5041219;28;20026;-73
2021/03/26 04:15:28;;;;;;;29.33;11.13;;;5.30;99.90;;;;;;5026015;28;20057;-72
2021/03/26 04:17:56;;;;;;;33.08;10.15;;;5.30;99.90;;;;;;5040964;28;20046;-73
2021/03/26 04:20:28;;;;;;;41.00;12.00;;;5.30;99.90;;;;;;5025857;28;20046;-74
2021/03/26 04:23:01;;;;;;;25.27;10.25;;;5.30;99.90;;;;;;5025922;28;20030;-74
2021/03/26 04:25:31;;;;;;;40.70;13.50;;;5.30;99.90;;;;;;5024501;28;20068;-73
2021/03/26 04:28:06;;;;;;;36.03;13.13;;;5.30;99.90;;;;;;5024412;28;20037;-75
2021/03/26 04:30:38;;;;;;;41.70;13.63;;;5.40;99.90;;;;;;5026078;28;20037;-73
2021/03/26 04:33:04;;;;;;;27.13;9.23;;;5.40;99.90;;;;;;5025843;28;20033;-75
2021/03/26 04:35:30;;;;;;;37.95;12.05;;;5.40;99.90;;;;;;5025657;28;20029;-75
2021/03/26 04:38:15;;;;;;;32.50;12.30;;;5.40;99.90;;;;;;5025563;28;20063;-73
2021/03/26 04:40:44;;;;;;;26.92;10.95;;;5.40;99.90;;;;;;5025680;28;20029;-75
2021/03/26 04:43:41;;;;;;;29.45;10.95;;;5.40;99.90;;;;;;5025557;28;20026;-75
2021/03/26 04:46:17;;;;;;;31.58;10.88;;;5.30;99.90;;;;;;5025557;28;20052;-75
2021/03/26 04:49:07;;;;;;;29.15;11.05;;;5.30;99.90;;;;;;5025429;28;20034;-75
2021/03/26 04:51:41;;;;;;;29.15;10.45;;;5.20;99.90;;;;;;5025486;28;20041;-73
2021/03/26 04:54:20;;;;;;;26.30;12.05;;;5.20;99.90;;;;;;5025275;28;20121;-74
2021/03/26 04:56:52;;;;;;;29.42;10.23;;;5.20;99.90;;;;;;5023668;28;20030;-73
2021/03/26 04:59:23;;;;;;;25.02;9.40;;;5.20;99.90;;;;;;5025079;28;20105;-74
2021/03/26 05:01:50;;;;;;;33.22;12.05;;;5.10;99.90;;;;;;5025358;28;20037;-73
2021/03/26 05:04:21;;;;;;;31.17;11.18;;;5.10;99.90;;;;;;5025101;28;20045;-72
2021/03/26 05:06:54;;;;;;;26.52;11.27;;;5.10;99.90;;;;;;5025195;28;20026;-72
2021/03/26 05:09:23;;;;;;;41.05;12.63;;;5.10;99.90;;;;;;5023796;28;20193;-73
2021/03/26 05:11:54;;;;;;;27.90;11.32;;;5.10;99.90;;;;;;5024963;28;20034;-72
2021/03/26 05:14:34;;;;;;;28.73;11.40;;;5.20;99.90;;;;;;5040070;28;20390;-72
2021/03/26 05:17:09;;;;;;;32.08;11.70;;;5.20;99.90;;;;;;5025137;28;20053;-75
2021/03/26 05:19:49;;;;;;;28.10;11.70;;;5.30;99.90;;;;;;5023679;28;20038;-72
2021/03/26 05:22:36;;;;;;;31.48;11.88;;;5.20;99.90;;;;;;5024874;28;20041;-72
2021/03/26 05:25:21;;;;;;;25.02;10.25;;;5.20;99.90;;;;;;5039801;28;20037;-73
2021/03/26 05:27:47;;;;;;;39.97;12.20;;;5.20;99.90;;;;;;5024820;28;20010;-71
2021/03/26 05:30:26;;;;;;;33.58;12.93;;;5.20;99.90;;;;;;5024705;28;20036;-72
2021/03/26 05:33:02;;;;;;;30.40;12.32;;;5.20;99.90;;;;;;5023526;28;20034;-72
2021/03/26 05:35:51;;;;;;;27.30;11.30;;;5.20;99.90;;;;;;5024784;28;20040;-75
2021/03/26 05:38:48;;;;;;;37.30;12.48;;;5.20;99.90;;;;;;5052335;28;20460;-75
2021/03/26 05:41:56;;;;;;;36.33;12.55;;;5.20;99.90;;;;;;5068769;28;20036;-77
2021/03/26 05:44:28;;;;;;;34.22;13.15;;;5.20;99.90;;;;;;5043182;28;20041;-72
2021/03/26 05:47:24;;;;;;;40.38;15.32;;;5.30;99.90;;;;;;5044239;28;20053;-76
2021/03/26 05:49:59;;;;;;;38.05;11.23;;;5.30;99.90;;;;;;5026016;28;20065;-74
2021/03/26 05:53:07;;;;;;;39.63;14.18;;;5.30;99.90;;;;;;5023129;28;20022;-73
2021/03/26 05:56:13;;;;;;;37.33;13.80;;;5.40;99.90;;;;;;5023202;28;20049;-73
2021/03/26 05:58:42;;;;;;;35.28;14.43;;;5.40;99.90;;;;;;5023053;28;20041;-74
2021/03/26 06:01:29;;;;;;;34.13;12.68;;;5.40;99.90;;;;;;5036987;28;20037;-75
2021/03/26 06:04:18;;;;;;;36.83;13.73;;;5.50;99.90;;;;;;5043647;28;20068;-74
2021/03/26 06:07:00;;;;;;;39.55;15.25;;;5.50;99.90;;;;;;5031551;28;20041;-74
2021/03/26 06:10:03;;;;;;;31.10;12.23;;;5.50;99.90;;;;;;5023005;28;20025;-74
2021/03/26 06:13:02;;;;;;;33.55;12.27;;;5.60;99.90;;;;;;5038923;28;20086;-74
2021/03/26 06:16:07;;;;;;;32.33;12.75;;;5.70;99.90;;;;;;5042684;28;20034;-74
2021/03/26 06:18:54;;;;;;;38.97;13.73;;;5.70;99.90;;;;;;5027120;28;20069;-74
2021/03/26 06:21:44;;;;;;;24.40;12.45;;;5.80;99.90;;;;;;5029964;28;20044;-76
2021/03/26 06:24:21;;;;;;;28.17;12.43;;;5.90;99.90;;;;;;5022301;28;20026;-74
2021/03/26 06:27:15;;;;;;;33.70;13.48;;;6.00;99.90;;;;;;5033326;28;20031;-74
2021/03/26 06:30:12;;;;;;;39.13;13.25;;;6.10;99.90;;;;;;5041991;28;20032;-76
2021/03/26 06:33:24;;;;;;;34.28;12.95;;;6.20;99.90;;;;;;5042189;28;20049;-75
2021/03/26 06:36:23;;;;;;;31.88;13.25;;;6.40;99.90;;;;;;5042164;28;20041;-77
2021/03/26 06:39:04;;;;;;;38.10;14.75;;;6.50;99.90;;;;;;5037504;28;20073;-75
2021/03/26 06:42:14;;;;;;;32.05;14.45;;;6.60;99.90;;;;;;5025914;28;20107;-75
2021/03/26 06:45:06;;;;;;;29.27;13.63;;;6.80;99.90;;;;;;5026951;28;20033;-76
2021/03/26 06:47:57;;;;;;;36.55;13.48;;;6.90;99.90;;;;;;5042708;28;20120;-78
2021/03/26 06:50:56;;;;;;;35.38;14.07;;;7.00;99.90;;;;;;5047023;28;20072;-74
2021/03/26 06:53:39;;;;;;;37.00;13.95;;;7.00;99.90;;;;;;5024332;28;20101;-77
2021/03/26 06:56:07;;;;;;;34.33;14.63;;;7.10;99.90;;;;;;5025980;28;20375;-76
2021/03/26 06:58:43;;;;;;;34.78;14.05;;;7.20;99.90;;;;;;5027199;28;20053;-78
2021/03/26 07:01:27;;;;;;;35.25;14.60;;;7.20;99.90;;;;;;5035961;28;20030;-75
2021/03/26 07:04:22;;;;;;;31.38;13.73;;;7.30;99.90;;;;;;5042233;28;20103;-76
2021/03/26 07:07:11;;;;;;;39.05;15.13;;;7.30;99.90;;;;;;5026748;28;20030;-76
2021/03/26 07:09:47;;;;;;;35.97;15.45;;;7.30;99.90;;;;;;5025063;28;20092;-75
2021/03/26 07:12:19;;;;;;;37.60;16.23;;;7.30;99.90;;;;;;5026877;28;20030;-76
2021/03/26 07:15:07;;;;;;;29.98;14.15;;;7.30;99.90;;;;;;5026713;28;20117;-76
2021/03/26 07:17:46;;;;;;;39.78;15.00;;;7.40;99.90;;;;;;5026710;28;20037;-74
2021/03/26 07:20:32;;;;;;;38.60;15.43;;;7.50;99.90;;;;;;5025579;28;20104;-76
2021/03/26 07:23:23;;;;;;;35.45;15.07;;;7.70;99.90;;;;;;5025650;28;20022;-78
2021/03/26 07:26:26;;;;;;;29.95;13.48;;;7.90;99.90;;;;;;5026742;28;20032;-75
2021/03/26 07:29:30;;;;;;;38.75;14.20;;;8.10;99.90;;;;;;5026567;28;20026;-76
2021/03/26 07:32:33;;;;;;;35.15;13.52;;;8.30;99.90;;;;;;5031617;28;20061;-78
2021/03/26 07:35:17;;;;;;;35.25;13.95;;;8.50;99.90;;;;;;5026596;28;20082;-77
2021/03/26 07:38:20;;;;;;;33.05;13.93;;;8.70;99.90;;;;;;5035656;28;20033;-76
2021/03/26 07:40:54;;;;;;;30.02;13.38;;;8.80;99.90;;;;;;5029882;28;20049;-75
2021/03/26 07:43:41;;;;;;;31.40;13.68;;;9.00;99.90;;;;;;5045263;28;20029;-75
2021/03/26 07:46:28;;;;;;;36.35;14.20;;;9.10;99.90;;;;;;5046268;28;20039;-77
2021/03/26 07:49:12;;;;;;;37.72;13.75;;;9.30;99.90;;;;;;5044654;28;20051;-76
2021/03/26 07:52:01;;;;;;;35.83;13.80;;;9.50;99.90;;;;;;5046084;28;20052;-78
2021/03/26 07:54:37;;;;;;;26.02;13.25;;;9.60;99.90;;;;;;5045789;28;20264;-75
2021/03/26 07:57:28;;;;;;;29.50;12.55;;;9.80;99.90;;;;;;5044933;28;20040;-78
2021/03/26 08:00:07;;;;;;;26.55;11.82;;;9.90;99.90;;;;;;5037250;28;20046;-80
2021/03/26 08:02:55;;;;;;;28.33;9.90;;;10.00;99.90;;;;;;5037459;28;20090;-77
2021/03/26 08:05:33;;;;;;;23.98;9.73;;;10.10;99.90;;;;;;5044081;28;20041;-75
2021/03/26 08:08:36;;;;;;;20.67;8.57;;;10.40;99.90;;;;;;5042679;28;20446;-75
2021/03/26 08:11:40;;;;;;;25.55;10.40;;;10.60;99.90;;;;;;5025018;28;20380;-76
2021/03/26 08:14:27;;;;;;;20.90;8.75;;;10.70;99.90;;;;;;5024990;28;20038;-79
2021/03/26 08:17:20;;;;;;;26.52;9.32;;;10.90;99.90;;;;;;5025787;28;20494;-77
2021/03/26 08:20:05;;;;;;;25.73;10.43;;;11.10;99.90;;;;;;5025369;28;20095;-78
2021/03/26 08:22:47;;;;;;;23.73;9.93;;;11.30;99.90;;;;;;5025073;28;20029;-77
2021/03/26 08:25:47;;;;;;;20.70;8.95;;;11.50;99.90;;;;;;5023875;28;20038;-75
2021/03/26 08:28:45;;;;;;;17.95;8.38;;;11.70;99.90;;;;;;5023935;28;20100;-74
2021/03/26 08:31:29;;;;;;;18.85;8.85;;;11.90;99.90;;;;;;5023434;28;20494;-74
2021/03/26 08:34:26;;;;;;;20.92;8.55;;;12.10;99.90;;;;;;5023964;28;20030;-77
2021/03/26 08:37:20;;;;;;;18.88;8.35;;;12.30;99.90;;;;;;5026928;28;20931;-78
2021/03/26 08:39:49;;;;;;;17.20;7.80;;;12.50;99.90;;;;;;5041154;28;20053;-77
2021/03/26 08:42:38;;;;;;;17.98;8.32;;;12.70;99.90;;;;;;5042719;28;20040;-76
2021/03/26 08:45:10;;;;;;;22.70;7.70;;;13.00;99.90;;;;;;5044843;28;20120;-80
2021/03/26 08:47:46;;;;;;;17.85;9.10;;;13.10;99.90;;;;;;5045257;28;20040;-77
2021/03/26 08:50:20;;;;;;;19.55;7.43;;;13.10;99.90;;;;;;5033858;28;20108;-77
2021/03/26 08:53:30;;;;;;;21.75;8.75;;;12.80;99.90;;;;;;5037727;28;20030;-78
2021/03/26 08:56:03;;;;;;;18.63;8.10;;;12.70;99.90;;;;;;5025129;28;20033;-76
2021/03/26 08:58:53;;;;;;;21.73;9.27;;;12.50;99.90;;;;;;5023537;28;20046;-79
2021/03/26 09:01:40;;;;;;;16.75;8.38;;;12.40;99.90;;;;;;5022865;28;20029;-79
2021/03/26 09:04:44;;;;;;;18.63;7.63;;;12.40;99.90;;;;;;5023802;28;20036;-75
2021/03/26 09:07:29;;;;;;;20.85;7.53;;;12.50;99.90;;;;;;5033767;28;20042;-77
2021/03/26 09:10:21;;;;;;;18.90;8.00;;;12.60;99.90;;;;;;5044895;28;20124;-74
2021/03/26 09:12:50;;;;;;;17.17;7.85;;;12.60;99.90;;;;;;5044340;28;20104;-73
2021/03/26 09:15:25;;;;;;;14.15;8.00;;;12.70;99.90;;;;;;5037931;28;20407;-75
2021/03/26 09:18:30;;;;;;;27.48;9.00;;;12.70;99.90;;;;;;5023015;28;20060;-75
2021/03/26 09:21:18;;;;;;;18.83;8.43;;;12.70;99.90;;;;;;5023685;28;20115;-79
2021/03/26 09:24:13;;;;;;;24.80;9.32;;;12.80;99.90;;;;;;5024529;28;20084;-76
2021/03/26 09:26:57;;;;;;;13.95;8.00;;;12.80;99.90;;;;;;5029467;28;20037;-76
2021/03/26 09:29:44;;;;;;;23.17;8.63;;;12.90;99.90;;;;;;5023327;28;20034;-77
2021/03/26 09:32:19;;;;;;;13.80;7.28;;;12.90;99.90;;;;;;5024628;28;20053;-78
2021/03/26 09:35:00;;;;;;;14.35;7.45;;;13.00;99.90;;;;;;5024312;28;20029;-76
2021/03/26 09:37:47;;;;;;;18.77;9.23;;;13.10;99.90;;;;;;5030124;28;20034;-75
2021/03/26 09:40:26;;;;;;;15.63;6.78;;;13.10;99.90;;;;;;5025446;28;20038;-79
2021/03/26 09:43:04;;;;;;;16.00;6.97;;;13.10;99.90;;;;;;5044339;28;20055;-77
2021/03/26 09:45:46;;;;;;;21.02;7.65;;;13.10;99.90;;;;;;5039496;28;20059;-78
2021/03/26 09:48:12;;;;;;;15.73;8.00;;;13.10;99.90;;;;;;5024424;28;20029;-77
2021/03/26 09:50:59;;;;;;;19.35;8.45;;;13.10;99.90;;;;;;5023195;28;20022;-79
2021/03/26 09:53:26;;;;;;;22.95;8.15;;;13.10;99.90;;;;;;5037803;28;20402;-76
2021/03/26 09:56:04;;;;;;;18.92;6.57;;;12.90;99.90;;;;;;5033956;28;20091;-77
2021/03/26 09:58:39;;;;;;;12.85;6.00;;;12.90;99.90;;;;;;5044443;28;20052;-75
2021/03/26 10:01:21;;;;;;;8.38;4.85;;;13.00;99.90;;;;;;5039824;28;20102;-76
2021/03/26 10:04:01;;;;;;;10.07;5.65;;;13.00;99.90;;;;;;5023992;28;20335;-77
2021/03/26 10:06:46;;;;;;;12.75;6.22;;;13.10;99.90;;;;;;5021943;28;20109;-76
2021/03/26 10:10:00;;;;;;;18.55;8.13;;;13.10;99.90;;;;;;5023756;28;20026;-77
2021/03/26 10:12:32;;;;;;;12.90;5.75;;;13.30;99.90;;;;;;5025912;28;20025;-76
2021/03/26 10:15:08;;;;;;;13.15;6.53;;;13.30;99.90;;;;;;5026803;28;20053;-76
2021/03/26 10:17:53;;;;;;;15.45;6.90;;;13.40;99.90;;;;;;5032254;28;20103;-77
2021/03/26 10:20:24;;;;;;;13.90;5.43;;;13.50;99.90;;;;;;5046045;28;20115;-77
2021/03/26 10:23:09;;;;;;;12.65;5.63;;;13.50;99.90;;;;;;5047381;28;20025;-75
2021/03/26 10:26:08;;;;;;;7.65;3.80;;;13.60;99.90;;;;;;5047249;28;20470;-78
2021/03/26 10:28:33;;;;;;;8.77;4.72;;;13.70;99.90;;;;;;5053865;28;20068;-78
2021/03/26 10:31:06;;;;;;;9.30;4.90;;;13.70;99.90;;;;;;5046276;28;20450;-76
2021/03/26 10:33:37;;;;;;;11.18;5.07;;;14.00;99.90;;;;;;5045326;28;20057;-76
2021/03/26 10:36:21;;;;;;;12.13;4.65;;;14.00;99.90;;;;;;5046058;28;20033;-75
2021/03/26 10:38:49;;;;;;;10.13;5.30;;;14.10;99.90;;;;;;5046868;28;20033;-75
2021/03/26 10:41:46;;;;;;;11.55;5.93;;;14.30;99.90;;;;;;5041656;28;20037;-76
2021/03/26 10:44:32;;;;;;;14.43;6.10;;;14.40;99.90;;;;;;5027172;28;20033;-75
2021/03/26 10:47:28;;;;;;;11.38;5.07;;;14.60;99.90;;;;;;5025984;28;20030;-77
2021/03/26 10:50:14;;;;;;;7.25;4.50;;;14.70;99.90;;;;;;5027172;28;20026;-76
2021/03/26 10:53:00;;;;;;;10.30;5.22;;;14.80;99.90;;;;;;5025618;28;20030;-79
2021/03/26 10:55:29;;;;;;;14.20;6.15;;;15.00;99.90;;;;;;5025949;28;20140;-77
2021/03/26 10:58:00;;;;;;;14.35;5.93;;;15.20;99.90;;;;;;5025571;28;20029;-76
2021/03/26 11:00:39;;;;;;;10.65;5.22;;;15.20;99.90;;;;;;5026985;28;20034;-75
2021/03/26 11:03:24;;;;;;;11.23;5.07;;;15.20;99.90;;;;;;5027075;28;20030;-77
2021/03/26 11:05:58;;;;;;;;;;;15.00;99.90;;;;;;5027474;28;20038;-77
2021/03/26 11:08:40;;;;;;;8.90;4.35;;;15.00;99.90;;;;;;5025399;28;19916;-74
2021/03/26 11:11:09;;;;;;;8.65;4.90;;;15.10;99.90;;;;;;5027016;28;20080;-79
2021/03/26 11:14:05;;;;;;;11.77;5.50;;;15.10;99.90;;;;;;5025909;28;20052;-80
2021/03/26 11:17:02;;;;;;;11.13;5.28;;;15.10;99.90;;;;;;5025111;28;20037;-78
2021/03/26 11:19:58;;;;;;;11.57;6.00;;;15.20;99.90;;;;;;5028941;28;20053;-78
2021/03/26 11:22:31;;;;;;;11.52;5.90;;;15.30;99.90;;;;;;5026815;28;20429;-73
2021/03/26 11:25:19;;;;;;;21.25;7.35;;;15.50;99.90;;;;;;5026207;28;20144;-74
2021/03/26 11:27:49;;;;;;;8.90;5.28;;;15.90;99.90;;;;;;5025178;28;20029;-75
2021/03/26 11:30:35;;;;;;;11.65;6.05;;;16.30;99.90;;;;;;5026670;28;20454;-77
2021/03/26 11:33:24;;;;;;;13.77;4.95;;;16.30;99.90;;;;;;5026969;28;20021;-75
2021/03/26 11:35:53;;;;;;;12.68;6.15;;;16.40;99.90;;;;;;5034532;28;20045;-77
2021/03/26 11:38:23;;;;;;;15.13;6.40;;;16.50;99.90;;;;;;5025032;28;20033;-75
2021/03/26 11:41:14;;;;;;;15.35;6.85;;;16.70;99.90;;;;;;5026709;28;20080;-76
2021/03/26 11:43:42;;;;;;;11.95;6.72;;;16.90;99.90;;;;;;5026137;28;20030;-74
2021/03/26 11:46:12;;;;;;;14.38;5.75;;;17.00;99.90;;;;;;5025588;28;20029;-76
2021/03/26 11:48:59;;;;;;;9.25;4.97;;;17.20;99.90;;;;;;5024350;28;20022;-76
2021/03/26 11:51:37;;;;;;;13.63;5.88;;;17.40;99.90;;;;;;5025604;28;20178;-77
2021/03/26 11:54:40;;;;;;;19.65;6.05;;;17.60;99.90;;;;;;5025533;28;20034;-75
2021/03/26 11:57:20;;;;;;;11.52;5.55;;;17.70;99.90;;;;;;5023877;28;20036;-78
2021/03/26 11:59:49;;;;;;;11.80;5.72;;;17.60;99.90;;;;;;5025344;28;20052;-77
2021/03/26 12:02:22;;;;;;;11.52;5.00;;;17.60;99.90;;;;;;5024079;28;20057;-73
2021/03/26 12:05:22;;;;;;;11.55;6.13;;;17.90;99.90;;;;;;5025143;28;20117;-74
2021/03/26 12:08:00;;;;;;;16.20;5.82;;;18.00;99.90;;;;;;5023467;28;20030;-74
2021/03/26 12:10:53;;;;;;;9.40;4.63;;;18.10;99.90;;;;;;5023904;28;20026;-75
2021/03/26 12:13:51;;;;;;;13.30;5.47;;;17.90;99.90;;;;;;5025079;28;20033;-75
2021/03/26 12:16:27;;;;;;;13.55;5.47;;;17.90;99.90;;;;;;5024780;28;20034;-71
2021/03/26 12:19:06;;;;;;;8.57;5.40;;;18.20;99.90;;;;;;5024729;28;20041;-75
2021/03/26 12:21:42;;;;;;;12.25;6.28;;;18.00;99.90;;;;;;5024885;28;20419;-74
2021/03/26 12:24:18;;;;;;;12.65;5.95;;;17.70;99.90;;;;;;5024699;28;20030;-75
2021/03/26 12:26:57;;;;;;;13.82;5.95;;;18.10;99.90;;;;;;5024697;28;20026;-72
2021/03/26 12:29:30;;;;;;;15.65;6.75;;;18.10;99.90;;;;;;5024943;28;20026;-74
2021/03/26 12:32:35;;;;;;;13.57;5.47;;;18.20;99.90;;;;;;5024976;28;20030;-80
2021/03/26 12:35:23;;;;;;;13.98;5.82;;;18.40;99.90;;;;;;5024155;28;20026;-73
2021/03/26 12:38:20;;;;;;;10.45;5.35;;;18.50;99.90;;;;;;5024570;28;20038;-74
2021/03/26 12:41:04;;;;;;;11.40;5.40;;;18.40;99.90;;;;;;5024728;28;20109;-76
2021/03/26 12:43:30;;;;;;;11.82;5.93;;;18.70;99.90;;;;;;5024718;28;20026;-75
2021/03/26 12:46:08;;;;;;;10.38;5.95;;;18.90;99.90;;;;;;5024769;28;20025;-74
2021/03/26 12:48:45;;;;;;;10.30;5.30;;;19.20;99.90;;;;;;5024422;28;20493;-76
2021/03/26 12:51:32;;;;;;;17.20;7.75;;;19.80;99.90;;;;;;5024615;28;20030;-77
2021/03/26 12:54:26;;;;;;;12.25;6.43;;;19.50;99.90;;;;;;5023377;28;20032;-77
2021/03/26 12:57:14;;;;;;;14.68;6.00;;;19.10;99.90;;;;;;5024378;28;20029;-77
2021/03/26 12:59:55;;;;;;;9.10;5.03;;;19.20;99.90;;;;;;5022781;28;20068;-77
2021/03/26 13:02:39;;;;;;;15.15;5.93;;;19.40;99.90;;;;;;5025034;28;20033;-76
2021/03/26 13:05:16;;;;;;;9.53;4.93;;;19.10;99.90;;;;;;5023826;28;20092;-76
2021/03/26 13:07:54;;;;;;;12.75;6.20;;;18.60;99.90;;;;;;5024725;28;20022;-79
2021/03/26 13:10:48;;;;;;;10.65;4.75;;;18.40;99.90;;;;;;5024822;28;20079;-75
2021/03/26 13:13:32;;;;;;;10.10;6.13;;;18.70;99.90;;;;;;5031127;28;20064;-73
2021/03/26 13:16:14;;;;;;;15.77;6.00;;;19.10;99.90;;;;;;5025292;28;20165;-74
2021/03/26 13:18:59;;;;;;;10.35;5.22;;;19.00;99.90;;;;;;5024629;28;20076;-74
2021/03/26 13:21:34;;;;;;;15.38;6.18;;;19.20;99.90;;;;;;5025219;28;20085;-74
2021/03/26 13:24:24;;;;;;;6.30;4.35;;;19.20;99.90;;;;;;5025063;28;20026;-76
2021/03/26 13:27:20;;;;;;;10.70;5.45;;;18.90;99.90;;;;;;5024815;28;20045;-76
2021/03/26 13:30:04;;;;;;;;;;;18.90;99.90;;;;;;5023872;28;20088;-75
2021/03/26 13:33:06;;;;;;;13.43;5.72;;;19.20;99.90;;;;;;5024760;28;19912;-79
2021/03/26 13:35:50;;;;;;;7.88;3.90;;;19.70;99.90;;;;;;5024666;28;20026;-77
2021/03/26 13:38:40;;;;;;;6.05;3.60;;;19.30;99.90;;;;;;5024338;28;20100;-76
2021/03/26 13:41:16;;;;;;;7.00;3.60;;;19.00;99.90;;;;;;5024808;28;20022;-76
2021/03/26 13:43:43;;;;;;;7.72;3.92;;;18.70;99.90;;;;;;5024686;28;20033;-77
2021/03/26 13:46:27;;;;;;;11.10;4.10;;;18.30;99.90;;;;;;5023393;28;20034;-75